Time;durP1;ratioP1;P1;durP2;ratioP2;P2;SDS_P1;SDS_P2;PMS_P1;PMS_P2;Temp;Humidity;BMP_temperature;BMP_pressure;BME280_temperature;BME280_humidity;BME280_pressure;Samples;Min_cycle;Max_cycle;Signal;HPM_P1;HPM_P2
2021/11/30 00:00:11;;;;;;;7.32;1.38;;;;;;;;;;5104144;28;20526;-61
2021/11/30 00:02:38;;;;;;;7.45;1.85;;;;;;;;;;5101151;28;20044;-62
2021/11/30 00:05:05;;;;;;;6.72;1.80;;;;;;;;;;5080918;28;20065;-62
2021/11/30 00:07:31;;;;;;;12.35;2.40;;;;;;;;;;5080621;28;20513;-62
2021/11/30 00:12:25;;;;;;;6.72;1.60;;;;;;;;;;5102951;28;20100;-60
2021/11/30 00:14:53;;;;;;;11.57;2.15;;;;;;;;;;5103502;28;20048;-60
2021/11/30 00:17:19;;;;;;;5.95;1.60;;;;;;;;;;5099458;28;20048;-60
2021/11/30 00:19:46;;;;;;;8.07;1.33;;;;;;;;;;5098819;28;20036;-60
2021/11/30 00:22:13;;;;;;;6.72;1.35;;;;;;;;;;5093089;28;20462;-60
2021/11/30 00:24:40;;;;;;;6.28;1.17;;;;;;;;;;5102502;28;20062;-60
2021/11/30 00:27:06;;;;;;;3.10;0.90;;;;;;;;;;5097351;28;20052;-60
2021/11/30 00:29:33;;;;;;;4.53;1.77;;;;;;;;;;5090462;28;20055;-61
2021/11/30 00:32:00;;;;;;;5.43;1.45;;;;;;;;;;5091349;28;20052;-61
2021/11/30 00:34:26;;;;;;;5.45;1.33;;;;;;;;;;5098470;28;20062;-61
2021/11/30 00:36:53;;;;;;;8.90;2.60;;;;;;;;;;5096653;28;20064;-60
2021/11/30 00:39:19;;;;;;;5.18;1.30;;;;;;;;;;5103638;28;20067;-61
2021/11/30 00:41:49;;;;;;;7.80;2.40;;;;;;;;;;5094091;28;20100;-61
2021/11/30 00:44:16;;;;;;;4.25;1.75;;;;;;;;;;5103784;28;20153;-61
2021/11/30 00:46:43;;;;;;;4.63;1.38;;;;;;;;;;5103451;28;20047;-61
2021/11/30 00:49:09;;;;;;;6.13;1.58;;;;;;;;;;5103346;28;20040;-61
2021/11/30 00:51:37;;;;;;;11.15;1.77;;;;;;;;;;5076267;28;20056;-61
2021/11/30 00:54:07;;;;;;;6.10;1.73;;;;;;;;;;5099289;28;20105;-61
2021/11/30 00:56:33;;;;;;;6.32;2.17;;;;;;;;;;5103365;28;20044;-60
2021/11/30 00:58:59;;;;;;;3.88;1.70;;;;;;;;;;5105137;28;20142;-60
2021/11/30 01:01:26;;;;;;;4.63;1.95;;;;;;;;;;5104051;28;20047;-61
2021/11/30 01:03:52;;;;;;;5.90;2.47;;;;;;;;;;5097286;28;20052;-60
2021/11/30 01:06:18;;;;;;;6.10;2.15;;;;;;;;;;5093117;28;20069;-60
2021/11/30 01:08:44;;;;;;;10.15;2.50;;;;;;;;;;5106480;28;20035;-60
2021/11/30 01:11:10;;;;;;;8.25;2.38;;;;;;;;;;5106433;28;20261;-61
2021/11/30 01:13:36;;;;;;;7.85;2.72;;;;;;;;;;5102029;28;20074;-60
2021/11/30 01:16:03;;;;;;;7.50;2.20;;;;;;;;;;5101589;28;20043;-60
2021/11/30 01:18:29;;;;;;;9.38;2.25;;;;;;;;;;5106062;28;20562;-60
2021/11/30 01:20:56;;;;;;;6.85;2.45;;;;;;;;;;5086851;28;20056;-60
2021/11/30 01:23:22;;;;;;;12.73;2.95;;;;;;;;;;5106446;28;20052;-60
2021/11/30 01:25:48;;;;;;;5.50;2.28;;;;;;;;;;5105947;28;20040;-60
2021/11/30 01:28:14;;;;;;;7.68;2.58;;;;;;;;;;5106716;28;20244;-60
2021/11/30 01:30:40;;;;;;;5.47;2.30;;;;;;;;;;5106256;28;20035;-60
2021/11/30 01:33:07;;;;;;;8.63;3.03;;;;;;;;;;5106012;28;20133;-60
2021/11/30 01:35:34;;;;;;;9.07;2.85;;;;;;;;;;5105218;28;20035;-60
2021/11/30 01:38:01;;;;;;;12.17;2.80;;;;;;;;;;5106342;28;20040;-60
2021/11/30 01:40:28;;;;;;;8.43;2.55;;;;;;;;;;5106318;28;20373;-60
2021/11/30 01:42:57;;;;;;;13.05;3.05;;;;;;;;;;5086701;28;20059;-61
2021/11/30 01:45:42;;;;;;;7.28;2.58;;;;;;;;;;5105874;28;20047;-60
2021/11/30 01:50:52;;;;;;;13.73;2.85;;;;;;;;;;5105739;28;20036;-60
2021/11/30 01:53:18;;;;;;;10.43;2.58;;;;;;;;;;5106047;28;20606;-60
2021/11/30 01:55:45;;;;;;;6.82;2.40;;;;;;;;;;5105700;28;20044;-60
2021/11/30 01:58:12;;;;;;;5.05;2.33;;;;;;;;;;5106415;28;20047;-60
2021/11/30 02:00:38;;;;;;;8.32;3.08;;;;;;;;;;5104637;28;20075;-60
2021/11/30 02:03:06;;;;;;;10.18;2.60;;;;;;;;;;5102453;28;20036;-60
2021/11/30 02:05:37;;;;;;;11.93;2.80;;;;;;;;;;5105463;28;20486;-60
2021/11/30 02:08:03;;;;;;;7.78;2.80;;;;;;;;;;5106190;28;20040;-60
2021/11/30 02:10:30;;;;;;;12.75;3.15;;;;;;;;;;5105736;28;20071;-60
2021/11/30 02:12:56;;;;;;;5.90;2.45;;;;;;;;;;5105506;28;20052;-60
2021/11/30 02:15:25;;;;;;;9.18;3.53;;;;;;;;;;5099738;28;20044;-60
2021/11/30 02:17:52;;;;;;;5.40;2.75;;;;;;;;;;5101550;28;20052;-60
2021/11/30 02:20:18;;;;;;;12.05;3.80;;;;;;;;;;5100744;28;20875;-61
2021/11/30 02:22:50;;;;;;;10.30;3.80;;;;;;;;;;5092078;28;20098;-61
2021/11/30 02:25:17;;;;;;;5.53;3.72;;;;;;;;;;5079583;28;20063;-60
2021/11/30 02:27:43;;;;;;;7.25;4.28;;;;;;;;;;5086336;28;20051;-59
2021/11/30 02:30:09;;;;;;;8.90;4.78;;;;;;;;;;5098790;28;20059;-60
2021/11/30 02:32:35;;;;;;;9.27;5.05;;;;;;;;;;5092717;28;20044;-60
2021/11/30 02:35:01;;;;;;;9.32;5.35;;;;;;;;;;5089339;28;20044;-60
2021/11/30 02:37:36;;;;;;;9.90;5.97;;;;;;;;;;5099774;28;20107;-59
2021/11/30 02:40:02;;;;;;;11.25;7.32;;;;;;;;;;5081122;28;20124;-60
2021/11/30 02:42:29;;;;;;;14.60;6.72;;;;;;;;;;5093473;28;20060;-60
2021/11/30 02:44:55;;;;;;;10.23;7.13;;;;;;;;;;5091370;28;20099;-60
2021/11/30 02:47:24;;;;;;;10.48;7.65;;;;;;;;;;5097188;28;20051;-60
2021/11/30 02:49:50;;;;;;;8.82;6.57;;;;;;;;;;5096649;28;20059;-59
2021/11/30 02:52:20;;;;;;;6.47;4.47;;;;;;;;;;5092250;28;20040;-61
2021/11/30 02:54:53;;;;;;;10.68;6.65;;;;;;;;;;5077270;28;20053;-60
2021/11/30 02:57:19;;;;;;;7.38;6.07;;;;;;;;;;5104414;28;20052;-60
2021/11/30 02:59:48;;;;;;;10.68;7.05;;;;;;;;;;5092757;28;20040;-61
2021/11/30 03:02:21;;;;;;;7.78;5.10;;;;;;;;;;5100620;28;20127;-61
2021/11/30 03:04:49;;;;;;;11.75;6.43;;;;;;;;;;5096316;28;20083;-61
2021/11/30 03:07:19;;;;;;;13.52;7.53;;;;;;;;;;5093787;28;20091;-61
2021/11/30 03:09:45;;;;;;;8.40;6.10;;;;;;;;;;5092438;28;20068;-61
2021/11/30 03:12:11;;;;;;;5.30;4.78;;;;;;;;;;5090852;28;20040;-61
2021/11/30 03:14:38;;;;;;;7.95;6.00;;;;;;;;;;5080058;28;20048;-60
2021/11/30 03:17:05;;;;;;;5.13;4.55;;;;;;;;;;5087083;28;20145;-60
2021/11/30 03:19:32;;;;;;;6.83;5.37;;;;;;;;;;5077443;28;20054;-60
2021/11/30 03:21:58;;;;;;;8.43;5.80;;;;;;;;;;5083055;28;20059;-61
2021/11/30 03:24:25;;;;;;;6.38;3.70;;;;;;;;;;5069584;28;20334;-60
2021/11/30 03:26:51;;;;;;;6.13;4.75;;;;;;;;;;5086928;28;20106;-60
2021/11/30 03:29:17;;;;;;;8.98;6.13;;;;;;;;;;5078717;28;20120;-59
2021/11/30 03:34:09;;;;;;;6.75;5.47;;;;;;;;;;5103174;28;20112;-59
2021/11/30 03:36:36;;;;;;;9.45;6.50;;;;;;;;;;5093434;28;20048;-59
2021/11/30 03:39:05;;;;;;;6.65;5.53;;;;;;;;;;5095230;28;20055;-59
2021/11/30 03:41:33;;;;;;;11.93;9.15;;;;;;;;;;5091846;28;20154;-59
2021/11/30 03:44:01;;;;;;;9.50;7.38;;;;;;;;;;5097230;28;20413;-59
2021/11/30 03:46:27;;;;;;;12.23;7.40;;;;;;;;;;5066375;28;20064;-59
2021/11/30 03:48:53;;;;;;;12.57;6.70;;;;;;;;;;5092542;28;20107;-59
2021/11/30 03:51:20;;;;;;;11.68;7.43;;;;;;;;;;5098913;28;20052;-60
2021/11/30 03:53:46;;;;;;;11.55;8.15;;;;;;;;;;5094399;28;20127;-59
2021/11/30 03:56:12;;;;;;;8.65;7.05;;;;;;;;;;5070958;28;20054;-58
2021/11/30 03:58:38;;;;;;;12.65;9.43;;;;;;;;;;5104221;28;20036;-59
2021/11/30 04:01:04;;;;;;;13.40;9.07;;;;;;;;;;5104320;28;20036;-59
2021/11/30 04:03:33;;;;;;;13.45;9.35;;;;;;;;;;5086430;28;20040;-59
2021/11/30 04:06:00;;;;;;;9.32;7.55;;;;;;;;;;5084606;28;20055;-59
2021/11/30 04:08:26;;;;;;;13.25;7.40;;;;;;;;;;5091491;28;20078;-59
2021/11/30 04:10:52;;;;;;;14.85;7.95;;;;;;;;;;5092767;28;20103;-59
2021/11/30 04:13:18;;;;;;;13.63;8.98;;;;;;;;;;5102674;28;20044;-59
2021/11/30 04:15:44;;;;;;;17.60;9.50;;;;;;;;;;5091315;28;20048;-59
2021/11/30 04:18:10;;;;;;;18.02;9.10;;;;;;;;;;5088170;28;20051;-59
2021/11/30 04:20:37;;;;;;;17.65;8.35;;;;;;;;;;5089086;28;20063;-59
2021/11/30 04:23:03;;;;;;;17.95;7.13;;;;;;;;;;5099275;28;20044;-59
2021/11/30 04:25:30;;;;;;;13.13;6.65;;;;;;;;;;5094453;28;20044;-59
2021/11/30 04:27:56;;;;;;;11.10;5.45;;;;;;;;;;5085654;28;20047;-58
2021/11/30 04:30:22;;;;;;;20.95;5.18;;;;;;;;;;5089914;28;20045;-59
2021/11/30 04:32:48;;;;;;;19.05;5.55;;;;;;;;;;5096217;28;20036;-59
2021/11/30 04:35:14;;;;;;;11.73;4.45;;;;;;;;;;5104013;28;20054;-59
2021/11/30 04:37:40;;;;;;;17.15;3.72;;;;;;;;;;5101366;28;20040;-59
2021/11/30 04:40:09;;;;;;;18.15;4.47;;;;;;;;;;5070340;28;20049;-59
2021/11/30 04:42:35;;;;;;;13.68;3.38;;;;;;;;;;5096781;28;20090;-60
2021/11/30 04:45:15;;;;;;;11.75;3.47;;;;;;;;;;5095740;28;20180;-59
2021/11/30 04:47:42;;;;;;;16.60;3.05;;;;;;;;;;5095560;28;20032;-60
2021/11/30 04:50:15;;;;;;;12.63;3.08;;;;;;;;;;5098028;28;20059;-60
2021/11/30 04:52:42;;;;;;;15.48;2.75;;;;;;;;;;5096392;28;20040;-59
2021/11/30 04:55:08;;;;;;;24.17;3.45;;;;;;;;;;5097863;28;20048;-59
2021/11/30 04:57:35;;;;;;;22.45;4.43;;;;;;;;;;5095930;28;20037;-59
2021/11/30 05:00:01;;;;;;;23.42;3.65;;;;;;;;;;5091531;28;20044;-60
2021/11/30 05:02:27;;;;;;;23.10;3.25;;;;;;;;;;5097197;28;20048;-60
2021/11/30 05:04:53;;;;;;;21.25;2.80;;;;;;;;;;5095753;28;20051;-60
2021/11/30 05:07:19;;;;;;;23.38;4.68;;;;;;;;;;5101346;28;20072;-60
2021/11/30 05:09:46;;;;;;;21.85;2.50;;;;;;;;;;5099741;28;20122;-60
2021/11/30 05:12:12;;;;;;;22.15;2.72;;;;;;;;;;5104693;28;20119;-60
2021/11/30 05:14:39;;;;;;;23.15;3.30;;;;;;;;;;5087354;28;20127;-60
2021/11/30 05:17:05;;;;;;;23.23;2.63;;;;;;;;;;5099724;28;20039;-60
2021/11/30 05:19:31;;;;;;;28.05;3.10;;;;;;;;;;5093906;28;20049;-60
2021/11/30 05:21:57;;;;;;;27.98;3.47;;;;;;;;;;5100063;28;20060;-60
2021/11/30 05:24:25;;;;;;;23.05;2.97;;;;;;;;;;5099654;28;20048;-60
2021/11/30 05:26:54;;;;;;;32.83;4.57;;;;;;;;;;5097576;28;20039;-60
2021/11/30 05:29:20;;;;;;;14.50;2.50;;;;;;;;;;5078876;28;20074;-61
2021/11/30 05:31:46;;;;;;;18.92;3.28;;;;;;;;;;5096927;28;20573;-60
2021/11/30 05:34:13;;;;;;;18.60;2.50;;;;;;;;;;5093248;28;20511;-61
2021/11/30 05:36:40;;;;;;;21.50;2.53;;;;;;;;;;5087365;28;20052;-60
2021/11/30 05:39:06;;;;;;;24.65;4.05;;;;;;;;;;5104023;28;20040;-60
2021/11/30 05:41:32;;;;;;;16.02;2.15;;;;;;;;;;5093075;28;20107;-60
2021/11/30 05:43:58;;;;;;;16.10;3.30;;;;;;;;;;5102307;28;20036;-60
2021/11/30 05:46:24;;;;;;;27.42;4.05;;;;;;;;;;5092067;28;20076;-60
2021/11/30 05:48:50;;;;;;;19.67;3.00;;;;;;;;;;5091222;28;20052;-61
2021/11/30 05:51:17;;;;;;;26.15;3.60;;;;;;;;;;5082977;28;20128;-59
2021/11/30 05:53:43;;;;;;;24.77;3.35;;;;;;;;;;5079157;28;20059;-60
2021/11/30 05:56:10;;;;;;;13.73;2.85;;;;;;;;;;5088083;28;20086;-60
2021/11/30 05:58:38;;;;;;;19.60;2.70;;;;;;;;;;5105783;28;20464;-59
2021/11/30 06:01:15;;;;;;;22.35;2.70;;;;;;;;;;5098102;28;20044;-59
2021/11/30 06:03:59;;;;;;;22.45;3.28;;;;;;;;;;5096045;28;20040;-59
2021/11/30 06:06:26;;;;;;;22.70;3.40;;;;;;;;;;5096091;28;20035;-60
2021/11/30 06:08:52;;;;;;;28.60;3.92;;;;;;;;;;5098738;28;20040;-60
2021/11/30 06:11:18;;;;;;;23.10;3.17;;;;;;;;;;5094516;28;20079;-60
2021/11/30 06:13:45;;;;;;;22.33;2.78;;;;;;;;;;5093428;28;20055;-60
2021/11/30 06:16:11;;;;;;;30.00;3.42;;;;;;;;;;5095049;28;20048;-60
2021/11/30 06:18:38;;;;;;;17.77;2.70;;;;;;;;;;5099903;28;20032;-60
2021/11/30 06:21:04;;;;;;;16.13;3.13;;;;;;;;;;5101817;28;20563;-60
2021/11/30 06:23:30;;;;;;;21.02;3.83;;;;;;;;;;5104688;28;20047;-60
2021/11/30 06:25:56;;;;;;;18.35;2.78;;;;;;;;;;5105053;28;20051;-61
2021/11/30 06:28:22;;;;;;;20.45;2.88;;;;;;;;;;5104443;28;20036;-59
2021/11/30 06:30:51;;;;;;;17.30;2.38;;;;;;;;;;5100345;28;20485;-60
2021/11/30 06:33:17;;;;;;;23.13;2.28;;;;;;;;;;5087986;28;20402;-60
2021/11/30 06:35:43;;;;;;;25.00;2.70;;;;;;;;;;5099099;28;20164;-60
2021/11/30 06:38:09;;;;;;;14.32;2.17;;;;;;;;;;5095560;28;20063;-60
2021/11/30 06:40:35;;;;;;;26.88;3.63;;;;;;;;;;5101962;28;20054;-60
2021/11/30 06:43:02;;;;;;;20.45;2.97;;;;;;;;;;5101735;28;20067;-61
2021/11/30 06:45:28;;;;;;;21.33;4.22;;;;;;;;;;5102662;28;20044;-60
2021/11/30 06:47:54;;;;;;;21.67;3.20;;;;;;;;;;5102763;28;20087;-61
2021/11/30 06:50:20;;;;;;;16.55;2.50;;;;;;;;;;5095675;28;20046;-60
2021/11/30 06:52:48;;;;;;;21.08;3.28;;;;;;;;;;5096704;28;20048;-60
2021/11/30 06:55:14;;;;;;;15.73;2.53;;;;;;;;;;5094440;28;20048;-60
2021/11/30 06:57:42;;;;;;;13.68;1.90;;;;;;;;;;5095997;28;20060;-61
2021/11/30 07:00:09;;;;;;;14.93;2.92;;;;;;;;;;5074821;28;20079;-60
2021/11/30 07:02:36;;;;;;;26.17;3.15;;;;;;;;;;5098898;28;20434;-61
2021/11/30 07:05:12;;;;;;;20.13;2.42;;;;;;;;;;5096673;28;20509;-60
2021/11/30 07:07:55;;;;;;;15.13;1.92;;;;;;;;;;5080355;28;20463;-60
2021/11/30 07:10:37;;;;;;;16.55;1.90;;;;;;;;;;5091066;28;20048;-61
2021/11/30 07:13:23;;;;;;;16.23;2.53;;;;;;;;;;5095801;28;20078;-61
2021/11/30 07:15:54;;;;;;;15.10;2.63;;;;;;;;;;5081440;28;20056;-60
2021/11/30 07:18:20;;;;;;;9.60;2.03;;;;;;;;;;5091186;28;20044;-61
2021/11/30 07:20:47;;;;;;;16.25;1.58;;;;;;;;;;5092471;28;20077;-61
2021/11/30 07:23:14;;;;;;;12.18;2.55;;;;;;;;;;5097353;28;20126;-61
2021/11/30 07:25:40;;;;;;;17.52;1.85;;;;;;;;;;5097960;28;20041;-60
2021/11/30 07:28:07;;;;;;;20.58;2.35;;;;;;;;;;5098769;28;20051;-60
2021/11/30 07:30:33;;;;;;;18.95;2.60;;;;;;;;;;5090876;28;20090;-59
2021/11/30 07:33:00;;;;;;;14.55;2.20;;;;;;;;;;5099372;28;20054;-60
2021/11/30 07:35:26;;;;;;;19.98;3.05;;;;;;;;;;5100879;28;20115;-60
2021/11/30 07:37:53;;;;;;;32.53;3.78;;;;;;;;;;5095975;28;20046;-60
2021/11/30 07:40:19;;;;;;;19.65;2.55;;;;;;;;;;5094273;28;20044;-60
2021/11/30 07:42:46;;;;;;;14.07;2.20;;;;;;;;;;5094361;28;20036;-59
2021/11/30 07:45:13;;;;;;;21.20;2.67;;;;;;;;;;5103905;28;20070;-60
2021/11/30 07:47:39;;;;;;;18.70;2.07;;;;;;;;;;5076897;28;20121;-59
2021/11/30 07:50:06;;;;;;;15.60;2.63;;;;;;;;;;5076544;28;20048;-60
2021/11/30 07:52:37;;;;;;;27.47;4.70;;;;;;;;;;5091198;28;20045;-60
2021/11/30 07:55:05;;;;;;;15.88;2.15;;;;;;;;;;5085969;28;20044;-60
2021/11/30 07:57:31;;;;;;;16.50;3.17;;;;;;;;;;5092744;28;20040;-60
2021/11/30 07:59:57;;;;;;;27.65;2.75;;;;;;;;;;5089762;28;20048;-61
2021/11/30 08:02:24;;;;;;;31.88;3.47;;;;;;;;;;5089282;28;20100;-60
2021/11/30 08:04:51;;;;;;;21.83;2.10;;;;;;;;;;5088393;28;20036;-60
2021/11/30 08:07:17;;;;;;;18.77;2.45;;;;;;;;;;5091343;28;20035;-60
2021/11/30 08:09:44;;;;;;;11.93;1.83;;;;;;;;;;5102224;28;20040;-60
2021/11/30 08:12:12;;;;;;;12.20;2.77;;;;;;;;;;5079687;28;20055;-59
2021/11/30 08:14:38;;;;;;;;;;;;;;;;;;5096664;28;20290;-60
2021/11/30 08:17:10;;;;;;;21.92;2.90;;;;;;;;;;5097803;28;19941;-60
2021/11/30 08:19:36;;;;;;;25.80;2.95;;;;;;;;;;5097058;28;20056;-59
2021/11/30 08:22:02;;;;;;;27.75;3.92;;;;;;;;;;5097654;28;20048;-61
2021/11/30 08:24:28;;;;;;;15.85;2.35;;;;;;;;;;5078464;28;20051;-59
2021/11/30 08:26:55;;;;;;;32.22;3.10;;;;;;;;;;5097982;28;20048;-60
2021/11/30 08:29:21;;;;;;;26.90;3.95;;;;;;;;;;5099260;28;20040;-60
2021/11/30 08:31:47;;;;;;;18.17;2.70;;;;;;;;;;5098495;28;20040;-60
2021/11/30 08:34:15;;;;;;;15.73;2.33;;;;;;;;;;5077410;28;20154;-61
2021/11/30 08:36:42;;;;;;;24.15;3.47;;;;;;;;;;5094465;28;20071;-60
2021/11/30 08:39:08;;;;;;;25.15;3.53;;;;;;;;;;5101134;28;20414;-60
2021/11/30 08:41:34;;;;;;;32.78;3.38;;;;;;;;;;5099005;28;20035;-60
2021/11/30 08:44:00;;;;;;;25.10;3.83;;;;;;;;;;5099860;28;20032;-59
2021/11/30 08:46:26;;;;;;;22.23;3.58;;;;;;;;;;5099029;28;20043;-60
2021/11/30 08:48:52;;;;;;;22.90;3.90;;;;;;;;;;5104914;28;20127;-60
2021/11/30 08:51:18;;;;;;;30.02;3.67;;;;;;;;;;5099696;28;20094;-59
2021/11/30 08:53:45;;;;;;;23.50;2.95;;;;;;;;;;5080625;28;20052;-60
2021/11/30 08:56:12;;;;;;;28.05;3.45;;;;;;;;;;5103449;28;20052;-60
2021/11/30 08:58:38;;;;;;;15.15;3.05;;;;;;;;;;5098188;28;20039;-61
2021/11/30 09:01:05;;;;;;;27.13;3.20;;;;;;;;;;5100127;28;20055;-60
2021/11/30 09:03:31;;;;;;;28.38;4.07;;;;;;;;;;5101660;28;20079;-60
2021/11/30 09:06:00;;;;;;;27.80;3.20;;;;;;;;;;5100518;28;20131;-61
2021/11/30 09:08:29;;;;;;;21.83;3.60;;;;;;;;;;5105841;28;20047;-61
2021/11/30 09:10:55;;;;;;;30.40;3.25;;;;;;;;;;5101709;28;20032;-60
2021/11/30 09:13:24;;;;;;;20.05;3.00;;;;;;;;;;5100775;28;20052;-60
2021/11/30 09:15:50;;;;;;;32.83;4.22;;;;;;;;;;5097115;28;20048;-60
2021/11/30 09:18:16;;;;;;;34.58;3.85;;;;;;;;;;5101735;28;20051;-60
2021/11/30 09:20:42;;;;;;;16.02;2.67;;;;;;;;;;5093348;28;20131;-60
2021/11/30 09:23:08;;;;;;;23.05;2.80;;;;;;;;;;5099135;28;20070;-60
2021/11/30 09:25:35;;;;;;;25.02;3.67;;;;;;;;;;5098478;28;20061;-61
2021/11/30 09:28:02;;;;;;;17.65;3.80;;;;;;;;;;5098390;28;20122;-60
2021/11/30 09:30:28;;;;;;;18.63;2.60;;;;;;;;;;5104694;28;20044;-60
2021/11/30 09:32:55;;;;;;;20.48;3.28;;;;;;;;;;5096334;28;20404;-61
2021/11/30 09:35:23;;;;;;;27.58;3.75;;;;;;;;;;5097926;28;20043;-60
2021/11/30 09:37:51;;;;;;;21.20;3.22;;;;;;;;;;5099824;28;20177;-60
2021/11/30 09:40:19;;;;;;;27.70;3.78;;;;;;;;;;5098276;28;20053;-60
2021/11/30 09:42:47;;;;;;;21.70;3.60;;;;;;;;;;5101759;28;20513;-61
2021/11/30 09:45:13;;;;;;;26.38;3.10;;;;;;;;;;5103106;28;20040;-60
2021/11/30 09:47:40;;;;;;;18.75;3.60;;;;;;;;;;5103562;28;20048;-62
2021/11/30 09:50:09;;;;;;;18.73;3.17;;;;;;;;;;5101922;28;20044;-60
2021/11/30 09:52:35;;;;;;;16.65;2.70;;;;;;;;;;5097438;28;20036;-60
2021/11/30 09:55:04;;;;;;;19.58;3.20;;;;;;;;;;5096613;28;20086;-60
2021/11/30 09:57:33;;;;;;;29.23;3.03;;;;;;;;;;5096356;28;20068;-60
2021/11/30 10:00:02;;;;;;;13.88;2.35;;;;;;;;;;5098834;28;20101;-60
2021/11/30 10:02:28;;;;;;;24.75;2.95;;;;;;;;;;5096863;28;20040;-60
2021/11/30 10:04:54;;;;;;;26.58;3.33;;;;;;;;;;5098406;28;20048;-61
2021/11/30 10:07:38;;;;;;;20.65;3.50;;;;;;;;;;5097899;28;20084;-61
2021/11/30 10:10:21;;;;;;;22.17;3.63;;;;;;;;;;5095722;28;20393;-60
2021/11/30 10:13:13;;;;;;;27.83;3.95;;;;;;;;;;5096836;28;20044;-61
2021/11/30 10:15:45;;;;;;;22.95;3.15;;;;;;;;;;5096469;28;20056;-61
2021/11/30 10:18:17;;;;;;;44.03;6.28;;;;;;;;;;5098933;28;20487;-60
2021/11/30 10:20:47;;;;;;;20.85;3.75;;;;;;;;;;5098278;28;20472;-60
2021/11/30 10:23:16;;;;;;;24.90;4.57;;;;;;;;;;5103933;28;20051;-60
2021/11/30 10:25:43;;;;;;;31.38;4.53;;;;;;;;;;5083001;28;20112;-60
2021/11/30 10:28:12;;;;;;;26.05;3.70;;;;;;;;;;5094748;28;20400;-60
2021/11/30 10:30:40;;;;;;;24.55;4.13;;;;;;;;;;5095096;28;20036;-60
2021/11/30 10:33:06;;;;;;;;;;;;;;;;;;5101196;28;20074;-60
2021/11/30 10:35:32;;;;;;;21.40;3.83;;;;;;;;;;5099230;28;19924;-60
2021/11/30 10:38:03;;;;;;;21.17;3.72;;;;;;;;;;5094297;28;20165;-61
2021/11/30 10:40:29;;;;;;;;;;;;;;;;;;5102545;28;20130;-61
2021/11/30 10:42:59;;;;;;;20.13;3.78;;;;;;;;;;5093804;28;20022;-61
2021/11/30 10:45:30;;;;;;;22.15;4.35;;;;;;;;;;5095832;28;20036;-60
2021/11/30 10:48:07;;;;;;;26.77;4.47;;;;;;;;;;5098645;28;20172;-60
2021/11/30 10:50:38;;;;;;;22.73;2.83;;;;;;;;;;5100085;28;20097;-60
2021/11/30 10:53:17;;;;;;;23.73;3.38;;;;;;;;;;5097556;28;20149;-61
2021/11/30 10:55:45;;;;;;;22.48;4.32;;;;;;;;;;5098669;28;20050;-60
2021/11/30 10:58:12;;;;;;;25.30;3.55;;;;;;;;;;5097703;28;20044;-61
2021/11/30 11:00:38;;;;;;;18.13;5.10;;;;;;;;;;5100822;28;20036;-61
2021/11/30 11:03:07;;;;;;;24.77;3.60;;;;;;;;;;5081550;28;20252;-61
2021/11/30 11:05:38;;;;;;;21.92;3.20;;;;;;;;;;5094017;28;20050;-61
2021/11/30 11:08:20;;;;;;;19.02;3.00;;;;;;;;;;5079452;28;20037;-61
2021/11/30 11:10:47;;;;;;;21.23;2.70;;;;;;;;;;5093879;28;20098;-61
2021/11/30 11:13:19;;;;;;;17.05;2.83;;;;;;;;;;5099411;28;20051;-60
2021/11/30 11:15:45;;;;;;;19.27;3.65;;;;;;;;;;5101637;28;20169;-61
2021/11/30 11:18:38;;;;;;;12.35;2.53;;;;;;;;;;5102577;28;20560;-61
2021/11/30 11:21:18;;;;;;;21.30;4.28;;;;;;;;;;5092187;28;20085;-60
2021/11/30 11:23:46;;;;;;;12.95;3.28;;;;;;;;;;5097529;28;20050;-61
2021/11/30 11:26:17;;;;;;;30.50;3.20;;;;;;;;;;5094295;28;20040;-60
2021/11/30 11:28:43;;;;;;;25.77;3.00;;;;;;;;;;5092324;28;20055;-60
2021/11/30 11:31:09;;;;;;;24.65;3.35;;;;;;;;;;5093891;28;20079;-60
2021/11/30 11:33:36;;;;;;;17.50;2.65;;;;;;;;;;5073074;28;20062;-61
2021/11/30 11:36:04;;;;;;;20.60;3.35;;;;;;;;;;5093990;28;20079;-60
2021/11/30 11:38:31;;;;;;;12.30;2.65;;;;;;;;;;5080128;28;20078;-60
2021/11/30 11:40:58;;;;;;;26.55;4.32;;;;;;;;;;5081009;28;20056;-61
2021/11/30 11:43:25;;;;;;;15.70;2.78;;;;;;;;;;5101131;28;20044;-61
2021/11/30 11:45:53;;;;;;;19.63;3.72;;;;;;;;;;5100641;28;20040;-61
2021/11/30 11:48:19;;;;;;;15.50;2.83;;;;;;;;;;5082111;28;20507;-61
2021/11/30 11:50:53;;;;;;;14.73;2.60;;;;;;;;;;5098254;28;20096;-61
2021/11/30 11:53:45;;;;;;;25.33;3.50;;;;;;;;;;5099578;28;20107;-62
2021/11/30 11:56:11;;;;;;;18.48;4.63;;;;;;;;;;5094713;28;20051;-62
2021/11/30 11:58:41;;;;;;;24.90;4.60;;;;;;;;;;5097874;28;20558;-60
2021/11/30 12:01:13;;;;;;;27.13;3.25;;;;;;;;;;5098137;28;20050;-61
2021/11/30 12:03:48;;;;;;;24.60;3.67;;;;;;;;;;5093352;28;20101;-62
2021/11/30 12:06:26;;;;;;;22.02;3.72;;;;;;;;;;5095068;28;20052;-60
2021/11/30 12:09:13;;;;;;;16.05;3.30;;;;;;;;;;5077489;28;20502;-60
2021/11/30 12:11:40;;;;;;;23.90;3.42;;;;;;;;;;5099731;28;20048;-62
2021/11/30 12:14:10;;;;;;;26.02;4.50;;;;;;;;;;5092933;28;20048;-61
2021/11/30 12:16:55;;;;;;;17.70;2.95;;;;;;;;;;5094007;28;20075;-61
2021/11/30 12:19:25;;;;;;;28.55;4.35;;;;;;;;;;5095513;28;20051;-61
2021/11/30 12:21:54;;;;;;;16.17;2.50;;;;;;;;;;5100913;28;20051;-61
2021/11/30 12:24:35;;;;;;;18.80;3.10;;;;;;;;;;5096560;28;20751;-62
2021/11/30 12:27:02;;;;;;;24.92;3.55;;;;;;;;;;5094024;28;20052;-62
2021/11/30 12:29:31;;;;;;;17.42;2.85;;;;;;;;;;5091598;28;20040;-61
2021/11/30 12:31:58;;;;;;;16.95;3.25;;;;;;;;;;5089448;28;20056;-61
2021/11/30 12:34:38;;;;;;;10.43;2.33;;;;;;;;;;5097602;28;20132;-61
2021/11/30 12:37:06;;;;;;;23.15;3.67;;;;;;;;;;5088863;28;20286;-61
2021/11/30 12:39:51;;;;;;;20.65;2.65;;;;;;;;;;5094501;28;20039;-61
2021/11/30 12:42:20;;;;;;;12.65;3.22;;;;;;;;;;5098685;28;20392;-61
2021/11/30 12:44:46;;;;;;;17.35;2.83;;;;;;;;;;5083002;28;20040;-61
2021/11/30 12:47:19;;;;;;;16.88;2.38;;;;;;;;;;5096839;28;20074;-61
2021/11/30 12:49:47;;;;;;;27.20;3.55;;;;;;;;;;5096608;28;20107;-60
2021/11/30 12:52:16;;;;;;;25.58;4.10;;;;;;;;;;5077905;28;20149;-61
2021/11/30 12:54:44;;;;;;;14.23;2.97;;;;;;;;;;5093569;28;20048;-61
2021/11/30 12:57:12;;;;;;;;;;;;;;;;;;5105362;28;20387;-61
2021/11/30 12:59:39;;;;;;;18.33;5.72;;;;;;;;;;5100697;28;19978;-60
2021/11/30 13:02:24;;;;;;;18.73;2.85;;;;;;;;;;5102969;28;20048;-61
2021/11/30 13:04:53;;;;;;;12.63;2.35;;;;;;;;;;5098611;28;20568;-60
2021/11/30 13:07:19;;;;;;;14.55;3.20;;;;;;;;;;5098418;28;20398;-60
2021/11/30 13:09:50;;;;;;;21.02;2.97;;;;;;;;;;5097602;28;20499;-60
2021/11/30 13:12:17;;;;;;;26.58;3.35;;;;;;;;;;5101690;28;20054;-61
2021/11/30 13:14:44;;;;;;;16.40;2.42;;;;;;;;;;5103394;28;20055;-61
2021/11/30 13:17:10;;;;;;;13.77;2.63;;;;;;;;;;5100877;28;20051;-61
2021/11/30 13:19:38;;;;;;;22.27;3.10;;;;;;;;;;5098782;28;20334;-60
2021/11/30 13:22:05;;;;;;;14.07;2.88;;;;;;;;;;5097413;28;20060;-61
2021/11/30 13:24:46;;;;;;;17.50;3.08;;;;;;;;;;5102517;28;20059;-60
2021/11/30 13:27:20;;;;;;;17.05;4.00;;;;;;;;;;5102063;28;20194;-61
2021/11/30 13:30:06;;;;;;;21.30;3.55;;;;;;;;;;5104727;28;20046;-61
2021/11/30 13:32:36;;;;;;;30.85;3.38;;;;;;;;;;5104781;28;20048;-60
2021/11/30 13:35:17;;;;;;;21.30;4.15;;;;;;;;;;5102593;28;20099;-60
2021/11/30 13:38:04;;;;;;;15.50;3.15;;;;;;;;;;5103541;28;20048;-60
2021/11/30 13:40:33;;;;;;;34.03;6.60;;;;;;;;;;5096386;28;20079;-61
2021/11/30 13:43:01;;;;;;;19.73;2.83;;;;;;;;;;5100567;28;20041;-62
2021/11/30 13:45:27;;;;;;;21.30;2.95;;;;;;;;;;5098169;28;20685;-61
2021/11/30 13:47:54;;;;;;;15.00;2.90;;;;;;;;;;5101809;28;20036;-60
2021/11/30 13:50:21;;;;;;;18.95;3.03;;;;;;;;;;5101337;28;20052;-61
2021/11/30 13:52:47;;;;;;;16.98;3.03;;;;;;;;;;5095875;28;20074;-60
2021/11/30 13:55:14;;;;;;;15.20;2.63;;;;;;;;;;5097876;28;20063;-60
2021/11/30 13:57:41;;;;;;;16.63;3.10;;;;;;;;;;5098580;28;20127;-61
2021/11/30 14:00:17;;;;;;;21.20;2.75;;;;;;;;;;5096322;28;20043;-61
2021/11/30 14:02:45;;;;;;;11.63;2.47;;;;;;;;;;5096051;28;20570;-61
2021/11/30 14:05:12;;;;;;;12.98;1.73;;;;;;;;;;5099552;28;20048;-62
2021/11/30 14:07:44;;;;;;;21.42;2.78;;;;;;;;;;5103202;28;20051;-60
2021/11/30 14:10:17;;;;;;;14.18;2.20;;;;;;;;;;5097913;28;20052;-62
2021/11/30 14:12:44;;;;;;;12.60;2.42;;;;;;;;;;5098995;28;20036;-61
2021/11/30 14:15:10;;;;;;;16.83;2.22;;;;;;;;;;5096788;28;20129;-61
2021/11/30 14:17:37;;;;;;;18.90;3.05;;;;;;;;;;5079069;28;20058;-60
2021/11/30 14:20:05;;;;;;;13.05;2.42;;;;;;;;;;5096533;28;20052;-61
2021/11/30 14:22:39;;;;;;;10.80;1.73;;;;;;;;;;5092069;28;20361;-61
2021/11/30 14:25:13;;;;;;;11.52;1.98;;;;;;;;;;5095601;28;20177;-60
2021/11/30 14:27:49;;;;;;;13.40;2.65;;;;;;;;;;5076321;28;20044;-61
2021/11/30 14:30:18;;;;;;;8.73;2.00;;;;;;;;;;5095529;28;20101;-61
2021/11/30 14:32:45;;;;;;;9.93;1.63;;;;;;;;;;5096065;28;20080;-60
2021/11/30 14:35:13;;;;;;;6.77;1.07;;;;;;;;;;5098433;28;20112;-61
2021/11/30 14:37:54;;;;;;;7.90;1.17;;;;;;;;;;5099076;28;20082;-60
2021/11/30 14:40:28;;;;;;;4.78;1.55;;;;;;;;;;5095994;28;20055;-61
2021/11/30 14:43:03;;;;;;;7.90;1.20;;;;;;;;;;5094386;28;20048;-61
2021/11/30 14:45:29;;;;;;;6.22;1.17;;;;;;;;;;5095979;28;20062;-60
2021/11/30 14:48:10;;;;;;;7.40;1.20;;;;;;;;;;5096483;28;20054;-61